All Spectrum Aviation - Van Nuys Airport - KVNY

HOME

Condor Squadron KVNY Webcam

Visit our Electronics Store

Condor Squadron Webcam - Van Nuys Airport - KVNY
Picture taken: Sun, 09 May 2021 22:32:41 -0700
YouTube Channel!    Latest Timelapse Movie    Full Size Image    Regular Size Image    

2021/05/10 04:51 KVNY 100451Z AUTO 14007KT 10SM OVC026 16/12 A2988 RMK AO2 SLP112 T01610122

HOME

Condor Squadron KVNY Webcam

Visit our Electronics Store